Time;durP1;ratioP1;P1;durP2;ratioP2;P2;SDS_P1;SDS_P2;PMS_P1;PMS_P2;Temp;Humidity;BMP_temperature;BMP_pressure;BME280_temperature;BME280_humidity;BME280_pressure;Samples;Min_cycle;Max_cycle;Signal;HPM_P1;HPM_P2
2022/06/02 00:02:32;;;;;;;17.17;11.02;;;;;;;;;;5033867;28;20081;-51
2022/06/02 00:05:08;;;;;;;18.23;10.60;;;;;;;;;;5025751;28;20529;-50
2022/06/02 00:07:44;;;;;;;19.55;11.85;;;;;;;;;;5014512;28;20442;-49
2022/06/02 00:10:21;;;;;;;15.90;9.93;;;;;;;;;;5014201;28;20054;-49
2022/06/02 00:12:56;;;;;;;12.32;9.57;;;;;;;;;;5014186;28;20053;-50
2022/06/02 00:15:26;;;;;;;16.60;10.48;;;;;;;;;;5014204;28;20049;-49
2022/06/02 00:18:02;;;;;;;14.65;9.27;;;;;;;;;;5014343;28;20096;-50
2022/06/02 00:20:33;;;;;;;15.40;10.27;;;;;;;;;;5014099;28;20074;-52
2022/06/02 00:23:26;;;;;;;16.08;9.73;;;;;;;;;;5013883;28;20068;-54
2022/06/02 00:26:00;;;;;;;18.58;10.60;;;;;;;;;;5014099;28;20096;-50
2022/06/02 00:28:35;;;;;;;13.23;9.60;;;;;;;;;;5014533;28;20053;-50
2022/06/02 00:31:13;;;;;;;13.85;9.13;;;;;;;;;;5013808;28;20141;-50
2022/06/02 00:33:50;;;;;;;13.35;7.95;;;;;;;;;;5013882;28;20139;-48
2022/06/02 00:36:24;;;;;;;12.95;7.85;;;;;;;;;;5013964;28;20058;-53
2022/06/02 00:38:51;;;;;;;12.82;7.80;;;;;;;;;;5013858;28;20092;-50
2022/06/02 00:41:23;;;;;;;14.52;9.13;;;;;;;;;;5013313;28;20053;-54
2022/06/02 00:44:09;;;;;;;15.85;8.75;;;;;;;;;;5013921;28;20108;-52
2022/06/02 00:46:55;;;;;;;18.00;10.98;;;;;;;;;;5013872;28;20514;-52
2022/06/02 00:49:31;;;;;;;22.70;12.48;;;;;;;;;;5013834;28;20613;-56
2022/06/02 00:52:25;;;;;;;24.80;13.93;;;;;;;;;;5013202;28;20096;-55
2022/06/02 00:57:59;;;;;;;17.30;11.25;;;;;;;;;;5013558;28;20123;-49
2022/06/02 01:00:35;;;;;;;20.60;11.50;;;;;;;;;;5034054;28;20045;-54
2022/06/02 01:03:12;;;;;;;21.52;12.63;;;;;;;;;;5033111;28;20057;-49
2022/06/02 01:05:57;;;;;;;19.95;12.60;;;;;;;;;;5019190;28;20196;-50
2022/06/02 01:08:39;;;;;;;19.35;11.80;;;;;;;;;;5013241;28;20132;-49
2022/06/02 01:11:13;;;;;;;23.38;13.57;;;;;;;;;;5012882;28;20081;-50
2022/06/02 01:13:52;;;;;;;27.02;14.18;;;;;;;;;;5013168;28;20050;-50
2022/06/02 01:16:26;;;;;;;28.77;14.95;;;;;;;;;;5013236;28;20081;-52
2022/06/02 01:19:14;;;;;;;25.30;14.18;;;;;;;;;;5013136;28;20077;-49
2022/06/02 01:22:14;;;;;;;26.10;15.30;;;;;;;;;;5012675;28;20054;-52
2022/06/02 01:25:06;;;;;;;21.83;12.77;;;;;;;;;;5013208;28;20111;-51
2022/06/02 01:27:55;;;;;;;22.98;13.68;;;;;;;;;;5012873;28;20054;-52
2022/06/02 01:30:51;;;;;;;22.92;12.10;;;;;;;;;;5013122;28;20521;-52
2022/06/02 01:33:26;;;;;;;20.33;12.20;;;;;;;;;;5012587;28;20050;-51
2022/06/02 01:36:03;;;;;;;25.67;13.80;;;;;;;;;;5013038;28;20089;-52
2022/06/02 01:38:40;;;;;;;27.65;13.50;;;;;;;;;;5012981;28;20129;-54
2022/06/02 01:41:15;;;;;;;22.73;14.07;;;;;;;;;;5012555;28;20499;-50
2022/06/02 01:43:54;;;;;;;25.98;13.60;;;;;;;;;;5012711;28;20073;-54
2022/06/02 01:46:41;;;;;;;19.90;11.68;;;;;;;;;;5012806;28;20092;-51
2022/06/02 01:49:23;;;;;;;19.40;10.85;;;;;;;;;;5012460;28;20049;-50
2022/06/02 01:52:01;;;;;;;23.10;12.15;;;;;;;;;;5012272;28;20458;-54
2022/06/02 01:54:40;;;;;;;21.25;11.93;;;;;;;;;;5012536;28;20140;-49
2022/06/02 01:57:22;;;;;;;23.02;12.50;;;;;;;;;;5012755;28;20475;-48
2022/06/02 01:59:58;;;;;;;21.98;12.07;;;;;;;;;;5029098;28;20509;-50
2022/06/02 02:02:38;;;;;;;20.75;12.80;;;;;;;;;;5031758;28;20558;-55
2022/06/02 02:05:26;;;;;;;20.77;11.83;;;;;;;;;;5022905;28;20142;-50
2022/06/02 02:08:14;;;;;;;15.60;10.57;;;;;;;;;;5012275;28;20176;-51
2022/06/02 02:10:56;;;;;;;15.45;9.48;;;;;;;;;;5011807;28;20112;-52
2022/06/02 02:13:32;;;;;;;13.30;8.73;;;;;;;;;;5012285;28;20483;-50
2022/06/02 02:16:10;;;;;;;16.13;8.63;;;;;;;;;;5012377;28;20104;-51
2022/06/02 02:18:53;;;;;;;14.75;9.02;;;;;;;;;;5012148;28;20148;-51
2022/06/02 02:21:28;;;;;;;17.23;11.18;;;;;;;;;;5012015;28;20053;-48
2022/06/02 02:24:03;;;;;;;19.35;10.30;;;;;;;;;;5011967;28;20060;-49
2022/06/02 02:26:38;;;;;;;15.75;10.00;;;;;;;;;;5012523;28;20053;-50
2022/06/02 02:29:17;;;;;;;17.05;10.27;;;;;;;;;;5012022;28;20112;-50
2022/06/02 02:31:49;;;;;;;16.55;9.98;;;;;;;;;;5011967;28;20154;-48
2022/06/02 02:34:31;;;;;;;16.30;9.07;;;;;;;;;;5012317;28;20050;-48
2022/06/02 02:37:03;;;;;;;17.90;10.95;;;;;;;;;;5012424;28;20092;-48
2022/06/02 02:39:39;;;;;;;22.33;11.45;;;;;;;;;;5012125;28;20056;-52
2022/06/02 02:42:12;;;;;;;21.88;11.07;;;;;;;;;;5011767;28;20054;-50
2022/06/02 02:44:48;;;;;;;20.42;12.27;;;;;;;;;;5011966;28;20054;-53
2022/06/02 02:47:21;;;;;;;19.63;11.13;;;;;;;;;;5012094;28;20104;-49
2022/06/02 02:49:53;;;;;;;25.13;12.13;;;;;;;;;;5011865;28;20154;-49
2022/06/02 02:52:25;;;;;;;16.77;10.40;;;;;;;;;;5011613;28;20049;-47
2022/06/02 02:54:57;;;;;;;20.58;10.85;;;;;;;;;;5011647;28;20177;-49
2022/06/02 02:57:36;;;;;;;16.88;9.95;;;;;;;;;;5011989;28;20085;-49
2022/06/02 03:00:10;;;;;;;16.23;9.25;;;;;;;;;;5030707;28;20077;-49
2022/06/02 03:02:56;;;;;;;15.25;8.85;;;;;;;;;;5031278;28;20100;-49
2022/06/02 03:05:29;;;;;;;17.05;10.00;;;;;;;;;;5019637;28;20108;-48
2022/06/02 03:08:04;;;;;;;16.90;10.07;;;;;;;;;;5012050;28;20476;-48
2022/06/02 03:10:35;;;;;;;18.65;10.57;;;;;;;;;;5011338;28;20054;-49
2022/06/02 03:13:19;;;;;;;19.30;11.18;;;;;;;;;;5013795;28;20519;-49
2022/06/02 03:15:53;;;;;;;22.45;11.80;;;;;;;;;;5015443;28;20128;-48
2022/06/02 03:18:46;;;;;;;17.45;10.07;;;;;;;;;;5015508;28;20498;-49
2022/06/02 03:21:19;;;;;;;13.43;8.05;;;;;;;;;;5008782;28;20124;-49
2022/06/02 03:24:02;;;;;;;15.77;8.40;;;;;;;;;;5015195;28;20054;-48
2022/06/02 03:26:37;;;;;;;13.93;8.38;;;;;;;;;;5015260;28;20584;-52
2022/06/02 03:29:12;;;;;;;11.70;8.48;;;;;;;;;;5015321;28;20086;-50
2022/06/02 03:31:49;;;;;;;18.50;10.50;;;;;;;;;;5014821;28;20045;-51
2022/06/02 03:34:26;;;;;;;13.90;9.05;;;;;;;;;;5015024;28;20517;-51
2022/06/02 03:37:10;;;;;;;16.45;9.38;;;;;;;;;;5015044;28;20050;-47
2022/06/02 03:39:50;;;;;;;15.32;9.55;;;;;;;;;;5015258;28;20491;-49
2022/06/02 03:42:27;;;;;;;15.65;8.52;;;;;;;;;;5014732;28;20045;-49
2022/06/02 03:45:05;;;;;;;14.32;7.75;;;;;;;;;;5015118;28;20088;-49
2022/06/02 03:47:54;;;;;;;9.77;6.32;;;;;;;;;;5014757;28;20104;-52
2022/06/02 03:50:42;;;;;;;8.95;6.18;;;;;;;;;;5014800;28;20134;-48
2022/06/02 03:53:38;;;;;;;12.27;6.75;;;;;;;;;;5014766;28;20108;-52
2022/06/02 03:56:19;;;;;;;11.10;6.88;;;;;;;;;;5014776;28;20050;-48
2022/06/02 03:59:08;;;;;;;9.55;6.70;;;;;;;;;;5023178;28;20049;-50
2022/06/02 04:01:38;;;;;;;10.10;7.00;;;;;;;;;;5034065;28;20347;-48
2022/06/02 04:04:24;;;;;;;10.97;6.90;;;;;;;;;;5034370;28;20472;-51
2022/06/02 04:07:08;;;;;;;13.05;7.70;;;;;;;;;;5034404;28;20122;-49
2022/06/02 04:09:49;;;;;;;12.35;7.32;;;;;;;;;;5034254;28;20062;-49
2022/06/02 04:15:41;;;;;;;11.65;7.75;;;;;;;;;;5034181;28;20060;-48
2022/06/02 04:18:24;;;;;;;13.80;7.57;;;;;;;;;;5034033;28;20103;-49
2022/06/02 04:21:06;;;;;;;13.93;7.53;;;;;;;;;;5033706;28;20159;-49
2022/06/02 04:23:45;;;;;;;14.73;8.13;;;;;;;;;;5033809;28;20049;-51
2022/06/02 04:26:29;;;;;;;12.73;8.13;;;;;;;;;;5034064;28;20104;-49
2022/06/02 04:29:02;;;;;;;13.00;8.63;;;;;;;;;;5034340;28;20099;-51
2022/06/02 04:31:48;;;;;;;13.00;9.23;;;;;;;;;;5033935;28;20115;-52
2022/06/02 04:34:24;;;;;;;12.68;8.30;;;;;;;;;;5033932;28;20053;-53
2022/06/02 04:37:01;;;;;;;13.05;9.45;;;;;;;;;;5033836;28;20107;-52
2022/06/02 04:39:36;;;;;;;14.40;9.25;;;;;;;;;;5034243;28;20116;-55
2022/06/02 04:42:10;;;;;;;12.60;8.50;;;;;;;;;;5033920;28;20099;-48
2022/06/02 04:44:46;;;;;;;11.70;8.13;;;;;;;;;;5033960;28;20615;-49
2022/06/02 04:47:22;;;;;;;14.65;9.45;;;;;;;;;;5033630;28;20111;-53
2022/06/02 04:50:00;;;;;;;14.35;8.90;;;;;;;;;;5033953;28;20057;-53
2022/06/02 04:52:34;;;;;;;16.38;8.93;;;;;;;;;;5033245;28;20107;-48
2022/06/02 04:55:11;;;;;;;13.88;8.98;;;;;;;;;;5033463;28;20057;-48
2022/06/02 04:57:48;;;;;;;13.65;9.25;;;;;;;;;;5033346;28;20089;-55
2022/06/02 05:00:22;;;;;;;15.13;9.25;;;;;;;;;;5013667;28;20104;-52
2022/06/02 05:02:58;;;;;;;16.98;10.00;;;;;;;;;;5013255;28;20473;-51
2022/06/02 05:05:34;;;;;;;14.50;8.93;;;;;;;;;;5013601;28;20054;-53
2022/06/02 05:08:14;;;;;;;14.93;9.43;;;;;;;;;;5013377;28;20514;-51
2022/06/02 05:10:48;;;;;;;21.25;9.70;;;;;;;;;;5012790;28;20054;-48
2022/06/02 05:13:27;;;;;;;14.88;8.85;;;;;;;;;;5013163;28;20093;-52
2022/06/02 05:16:07;;;;;;;14.52;9.30;;;;;;;;;;5013089;28;20058;-54
2022/06/02 05:18:55;;;;;;;15.88;7.97;;;;;;;;;;5013053;28;20053;-49
2022/06/02 05:21:39;;;;;;;18.83;9.68;;;;;;;;;;5013219;28;20533;-50
2022/06/02 05:24:36;;;;;;;18.52;10.70;;;;;;;;;;5013281;28;20061;-51
2022/06/02 05:27:43;;;;;;;18.08;9.93;;;;;;;;;;5013172;28;20050;-49
2022/06/02 05:30:42;;;;;;;16.95;10.48;;;;;;;;;;5013070;28;20081;-49
2022/06/02 05:33:31;;;;;;;17.42;10.20;;;;;;;;;;5012837;28;20050;-52
2022/06/02 05:36:14;;;;;;;16.75;10.73;;;;;;;;;;4990139;28;20053;-48
2022/06/02 05:39:00;;;;;;;17.33;12.25;;;;;;;;;;5013266;28;20096;-52
2022/06/02 05:41:51;;;;;;;25.92;13.93;;;;;;;;;;5012664;28;20112;-48
2022/06/02 05:44:25;;;;;;;;;;;;;;;;;;5013720;28;20061;-50
2022/06/02 05:47:21;;;;;;;20.20;12.00;;;;;;;;;;5013031;28;20020;-48
2022/06/02 05:49:56;;;;;;;20.67;12.70;;;;;;;;;;5012618;28;20081;-51
2022/06/02 05:52:34;;;;;;;19.50;12.45;;;;;;;;;;5012612;28;20053;-48
2022/06/02 05:55:16;;;;;;;23.30;12.82;;;;;;;;;;5013116;28;20046;-48
2022/06/02 05:57:55;;;;;;;21.42;12.68;;;;;;;;;;5013181;28;20050;-54
2022/06/02 06:00:32;;;;;;;19.05;12.73;;;;;;;;;;5032733;28;20122;-53
2022/06/02 06:03:29;;;;;;;18.83;13.07;;;;;;;;;;5032471;28;20057;-52
2022/06/02 06:06:03;;;;;;;23.52;12.90;;;;;;;;;;5032658;28;20063;-50
2022/06/02 06:08:47;;;;;;;19.98;12.27;;;;;;;;;;5032457;28;20049;-52
2022/06/02 06:11:29;;;;;;;23.00;12.68;;;;;;;;;;5032072;28;20046;-50
2022/06/02 06:14:21;;;;;;;22.67;13.48;;;;;;;;;;5032514;28;20081;-52
2022/06/02 06:16:58;;;;;;;19.45;13.23;;;;;;;;;;5032230;28;20049;-50
2022/06/02 06:19:39;;;;;;;19.90;13.13;;;;;;;;;;5032556;28;20050;-52
2022/06/02 06:22:35;;;;;;;19.45;11.75;;;;;;;;;;5032347;28;20053;-48
2022/06/02 06:25:12;;;;;;;21.73;12.98;;;;;;;;;;5030475;28;20080;-49
2022/06/02 06:27:48;;;;;;;21.35;12.40;;;;;;;;;;5032457;28;20049;-52
2022/06/02 06:30:27;;;;;;;18.65;12.00;;;;;;;;;;5032038;28;20483;-49
2022/06/02 06:33:06;;;;;;;25.48;13.65;;;;;;;;;;5032063;28;20115;-49
2022/06/02 06:35:55;;;;;;;22.40;13.88;;;;;;;;;;5032547;28;20041;-51
2022/06/02 06:38:50;;;;;;;24.27;15.27;;;;;;;;;;5032200;28;20076;-49
2022/06/02 06:41:33;;;;;;;20.27;13.18;;;;;;;;;;5031250;28;20343;-51
2022/06/02 06:44:11;;;;;;;18.73;11.95;;;;;;;;;;5032245;28;20132;-49
2022/06/02 06:46:44;;;;;;;22.95;13.50;;;;;;;;;;5033653;28;20096;-50
2022/06/02 06:49:17;;;;;;;18.33;12.18;;;;;;;;;;5036366;28;20092;-50
2022/06/02 06:51:54;;;;;;;20.73;11.77;;;;;;;;;;5035397;28;20050;-49
2022/06/02 06:54:29;;;;;;;21.73;12.50;;;;;;;;;;5036296;28;20081;-53
2022/06/02 06:57:01;;;;;;;19.58;11.90;;;;;;;;;;5035916;28;20529;-50
2022/06/02 06:59:44;;;;;;;18.65;11.65;;;;;;;;;;5028486;28;20069;-50
2022/06/02 07:02:24;;;;;;;21.58;11.88;;;;;;;;;;5027128;28;20116;-51
2022/06/02 07:05:01;;;;;;;19.38;13.98;;;;;;;;;;5025640;28;20082;-58
2022/06/02 07:07:39;;;;;;;18.77;12.10;;;;;;;;;;5023978;28;20115;-49
2022/06/02 07:10:11;;;;;;;21.63;13.68;;;;;;;;;;5021402;28;20085;-50
2022/06/02 07:12:54;;;;;;;21.73;14.10;;;;;;;;;;5016115;28;20045;-52
2022/06/02 07:15:40;;;;;;;20.75;12.57;;;;;;;;;;5015971;28;20464;-55
2022/06/02 07:18:15;;;;;;;16.13;11.82;;;;;;;;;;5015984;28;20411;-56
2022/06/02 07:20:51;;;;;;;23.10;12.48;;;;;;;;;;5024469;28;20049;-53
2022/06/02 07:23:28;;;;;;;23.45;12.93;;;;;;;;;;5022123;28;20557;-50
2022/06/02 07:26:08;;;;;;;20.02;12.25;;;;;;;;;;5013721;28;20120;-53
2022/06/02 07:28:45;;;;;;;19.80;13.60;;;;;;;;;;5021993;28;20045;-51
2022/06/02 07:31:30;;;;;;;25.60;13.30;;;;;;;;;;5033346;28;20096;-55
2022/06/02 07:34:11;;;;;;;22.48;11.90;;;;;;;;;;5027349;28;20080;-55
2022/06/02 07:36:53;;;;;;;20.10;13.40;;;;;;;;;;5015917;28;20042;-54
2022/06/02 07:39:56;;;;;;;20.33;13.38;;;;;;;;;;5013942;28;20081;-54
2022/06/02 07:42:39;;;;;;;26.40;15.13;;;;;;;;;;5013663;28;20406;-63
2022/06/02 07:45:30;;;;;;;23.50;14.88;;;;;;;;;;5014091;28;20076;-54
2022/06/02 07:48:28;;;;;;;22.92;14.43;;;;;;;;;;5013794;28;20085;-49
2022/06/02 07:51:07;;;;;;;22.08;12.82;;;;;;;;;;5013935;28;20056;-52
2022/06/02 07:53:50;;;;;;;25.15;15.65;;;;;;;;;;5024019;28;20132;-52
2022/06/02 07:56:29;;;;;;;30.67;17.25;;;;;;;;;;5021571;28;20070;-58
2022/06/02 07:59:07;;;;;;;24.20;14.38;;;;;;;;;;5013879;28;20424;-57
2022/06/02 08:01:57;;;;;;;22.35;13.30;;;;;;;;;;5018467;28;20075;-56
2022/06/02 08:04:32;;;;;;;23.52;13.52;;;;;;;;;;5021335;28;20052;-59
2022/06/02 08:07:04;;;;;;;24.25;13.75;;;;;;;;;;5023817;28;20119;-51
2022/06/02 08:09:51;;;;;;;20.27;13.80;;;;;;;;;;5012398;28;20493;-65
2022/06/02 08:12:27;;;;;;;20.75;12.93;;;;;;;;;;5017445;28;20085;-52
2022/06/02 08:15:07;;;;;;;23.10;14.80;;;;;;;;;;5023483;28;20077;-52
2022/06/02 08:17:38;;;;;;;26.17;15.07;;;;;;;;;;5023940;28;20130;-54
2022/06/02 08:20:29;;;;;;;24.70;14.95;;;;;;;;;;5026676;28;20514;-56
2022/06/02 08:23:01;;;;;;;27.20;15.20;;;;;;;;;;5024378;28;20068;-55
2022/06/02 08:25:35;;;;;;;23.48;13.35;;;;;;;;;;5023837;28;20089;-57
2022/06/02 08:28:32;;;;;;;25.23;15.55;;;;;;;;;;5021798;28;20045;-57
2022/06/02 08:31:08;;;;;;;21.58;13.75;;;;;;;;;;5033399;28;20055;-56
2022/06/02 08:33:43;;;;;;;21.00;13.23;;;;;;;;;;5032146;28;20056;-55
2022/06/02 08:36:14;;;;;;;26.20;17.45;;;;;;;;;;5032189;28;20496;-55
2022/06/02 08:39:10;;;;;;;24.65;12.23;;;;;;;;;;5032853;28;20064;-54
2022/06/02 08:42:17;;;;;;;21.77;12.55;;;;;;;;;;5033511;28;20049;-56
2022/06/02 08:45:14;;;;;;;23.42;15.50;;;;;;;;;;5006729;28;20058;-55
2022/06/02 08:48:28;;;;;;;17.08;11.38;;;;;;;;;;5022782;28;20052;-56
2022/06/02 08:51:19;;;;;;;18.25;12.90;;;;;;;;;;5023446;28;20057;-57
2022/06/02 08:54:22;;;;;;;20.80;12.57;;;;;;;;;;5026039;28;20053;-57
2022/06/02 08:57:20;;;;;;;18.77;11.48;;;;;;;;;;5023561;28;20125;-57
2022/06/02 09:00:14;;;;;;;18.02;11.43;;;;;;;;;;5022246;28;20418;-57
2022/06/02 09:03:31;;;;;;;17.95;11.25;;;;;;;;;;5025639;28;20099;-56
2022/06/02 09:06:39;;;;;;;24.38;12.00;;;;;;;;;;4979347;28;20046;-56
2022/06/02 09:09:44;;;;;;;19.10;12.48;;;;;;;;;;5005432;28;20483;-57
2022/06/02 09:12:38;;;;;;;18.00;12.00;;;;;;;;;;5014793;28;20054;-55
2022/06/02 09:15:29;;;;;;;26.23;14.88;;;;;;;;;;5012521;28;20057;-58
2022/06/02 09:18:16;;;;;;;18.88;11.43;;;;;;;;;;5012940;28;20081;-56
2022/06/02 09:20:49;;;;;;;51.45;20.30;;;;;;;;;;5011556;28;20105;-55
2022/06/02 09:23:48;;;;;;;19.35;12.88;;;;;;;;;;5011746;28;20565;-57
2022/06/02 09:26:29;;;;;;;27.73;14.43;;;;;;;;;;5003799;28;20389;-54
2022/06/02 09:29:32;;;;;;;35.45;19.85;;;;;;;;;;5017839;28;20059;-56
2022/06/02 09:32:23;;;;;;;19.30;12.55;;;;;;;;;;4960876;28;20050;-57
2022/06/02 09:35:02;;;;;;;18.65;11.38;;;;;;;;;;5015889;28;20112;-56
2022/06/02 09:37:55;;;;;;;14.68;9.93;;;;;;;;;;5012216;28;20061;-56
2022/06/02 09:40:45;;;;;;;21.65;12.50;;;;;;;;;;5012430;28;20050;-57
2022/06/02 09:43:39;;;;;;;22.13;14.30;;;;;;;;;;5016511;28;20073;-57
2022/06/02 09:46:24;;;;;;;17.00;11.82;;;;;;;;;;5021133;28;20050;-57
2022/06/02 09:49:07;;;;;;;24.45;15.57;;;;;;;;;;5021726;28;20050;-57
2022/06/02 09:51:47;;;;;;;23.98;12.43;;;;;;;;;;5013974;28;20464;-56
2022/06/02 09:54:49;;;;;;;19.52;13.20;;;;;;;;;;5012058;28;20050;-55
2022/06/02 09:57:57;;;;;;;20.75;14.10;;;;;;;;;;5013928;28;20045;-55
2022/06/02 10:00:38;;;;;;;21.95;13.38;;;;;;;;;;5021979;28;20136;-56
2022/06/02 10:03:24;;;;;;;22.35;14.50;;;;;;;;;;5018676;28;20437;-56
2022/06/02 10:06:06;;;;;;;21.67;12.98;;;;;;;;;;5024913;28;20049;-57
2022/06/02 10:08:40;;;;;;;20.83;13.07;;;;;;;;;;5010376;28;20156;-66
2022/06/02 10:11:25;;;;;;;18.88;12.65;;;;;;;;;;5009969;28;20118;-56
2022/06/02 10:14:23;;;;;;;19.92;13.65;;;;;;;;;;5010433;28;20049;-60
2022/06/02 10:17:14;;;;;;;22.83;12.75;;;;;;;;;;5023299;28;20049;-65
2022/06/02 10:20:06;;;;;;;22.60;14.55;;;;;;;;;;5021283;28;20191;-57
2022/06/02 10:22:43;;;;;;;19.42;12.07;;;;;;;;;;5029216;28;20115;-56
2022/06/02 10:26:06;;;;;;;17.80;11.50;;;;;;;;;;5027029;28;20148;-56
2022/06/02 10:29:27;;;;;;;19.42;11.95;;;;;;;;;;4983883;28;20051;-55
2022/06/02 10:32:25;;;;;;;18.42;12.48;;;;;;;;;;4951880;28;20054;-55
2022/06/02 10:35:28;;;;;;;20.95;11.70;;;;;;;;;;4998020;28;20095;-53
2022/06/02 10:38:19;;;;;;;20.05;11.00;;;;;;;;;;5015177;28;20135;-63
2022/06/02 10:40:57;;;;;;;17.10;12.05;;;;;;;;;;5030141;28;20049;-63
2022/06/02 10:43:50;;;;;;;16.52;10.10;;;;;;;;;;5030624;28;20380;-58
2022/06/02 10:46:43;;;;;;;26.33;11.05;;;;;;;;;;5030369;28;20487;-63
2022/06/02 10:49:15;;;;;;;17.40;11.30;;;;;;;;;;5030060;28;20077;-61
2022/06/02 10:52:27;;;;;;;21.27;13.43;;;;;;;;;;5029895;28;20053;-63
2022/06/02 10:55:39;;;;;;;60.30;20.38;;;;;;;;;;5030118;28;20045;-63
2022/06/02 10:58:31;;;;;;;51.92;19.27;;;;;;;;;;5029802;28;20495;-61
2022/06/02 11:01:30;;;;;;;30.67;14.13;;;;;;;;;;5029918;28;20427;-58
2022/06/02 11:04:42;;;;;;;24.80;14.07;;;;;;;;;;5030001;28;20049;-63
2022/06/02 11:07:53;;;;;;;19.20;11.35;;;;;;;;;;5032021;28;20126;-62
2022/06/02 11:10:30;;;;;;;21.30;13.32;;;;;;;;;;5006664;28;20073;-54
2022/06/02 11:13:33;;;;;;;18.63;12.18;;;;;;;;;;5031091;28;20064;-53
2022/06/02 11:16:41;;;;;;;16.27;10.27;;;;;;;;;;5031237;28;20450;-52
2022/06/02 11:19:44;;;;;;;14.80;10.82;;;;;;;;;;5030813;28;20061;-55
2022/06/02 11:22:36;;;;;;;20.13;10.32;;;;;;;;;;5030723;28;20557;-64
2022/06/02 11:25:26;;;;;;;20.75;13.80;;;;;;;;;;5030331;28;20072;-56
2022/06/02 11:28:29;;;;;;;151.40;118.30;;;;;;;;;;5029909;28;20053;-57
2022/06/02 11:31:35;;;;;;;58.08;46.60;;;;;;;;;;5029480;28;20049;-57
2022/06/02 11:34:17;;;;;;;18.67;11.35;;;;;;;;;;5013643;28;20088;-57
2022/06/02 11:37:17;;;;;;;18.23;13.45;;;;;;;;;;5031662;28;20085;-57
2022/06/02 11:40:15;;;;;;;16.85;10.80;;;;;;;;;;5032690;28;20103;-58
2022/06/02 11:43:11;;;;;;;19.45;11.68;;;;;;;;;;5032541;28;20091;-57
2022/06/02 11:46:15;;;;;;;17.95;11.57;;;;;;;;;;5023973;28;20148;-56
2022/06/02 11:49:11;;;;;;;26.88;15.32;;;;;;;;;;5033116;28;20056;-56
2022/06/02 11:51:58;;;;;;;17.40;10.68;;;;;;;;;;5032477;28;20123;-57
2022/06/02 11:55:01;;;;;;;22.45;13.25;;;;;;;;;;5032387;28;20050;-56
2022/06/02 11:57:46;;;;;;;18.25;11.38;;;;;;;;;;5033046;28;20418;-57
2022/06/02 12:00:52;;;;;;;16.65;10.32;;;;;;;;;;5013464;28;20049;-58
2022/06/02 12:03:57;;;;;;;34.92;24.27;;;;;;;;;;4991050;28;20660;-57
2022/06/02 12:06:46;;;;;;;20.38;13.63;;;;;;;;;;5032441;28;20056;-58
2022/06/02 12:09:55;;;;;;;17.80;11.98;;;;;;;;;;5026855;28;20053;-56
2022/06/02 12:12:35;;;;;;;16.63;10.50;;;;;;;;;;4983820;28;20064;-58
2022/06/02 12:15:40;;;;;;;20.65;11.57;;;;;;;;;;5032657;28;20429;-58
2022/06/02 12:18:26;;;;;;;13.55;10.68;;;;;;;;;;5031579;28;20045;-58
2022/06/02 12:21:45;;;;;;;16.42;10.55;;;;;;;;;;5032236;28;20049;-58
2022/06/02 12:24:31;;;;;;;18.50;11.93;;;;;;;;;;5031312;28;20053;-59
2022/06/02 12:27:43;;;;;;;19.05;10.93;;;;;;;;;;5032627;28;20053;-55
2022/06/02 12:30:31;;;;;;;13.95;10.35;;;;;;;;;;5033040;28;20504;-58
2022/06/02 12:33:21;;;;;;;15.57;10.02;;;;;;;;;;5032093;28;20072;-55
2022/06/02 12:36:21;;;;;;;18.55;11.73;;;;;;;;;;5032421;28;20099;-55
2022/06/02 12:39:29;;;;;;;17.77;10.18;;;;;;;;;;5021562;28;20506;-55
2022/06/02 12:42:35;;;;;;;15.02;9.68;;;;;;;;;;5027018;28;20049;-58
2022/06/02 12:45:37;;;;;;;17.42;10.60;;;;;;;;;;5028300;28;20079;-56
2022/06/02 12:48:54;;;;;;;15.27;10.43;;;;;;;;;;5031126;28;20060;-55
2022/06/02 12:51:38;;;;;;;15.18;10.02;;;;;;;;;;5031937;28;20447;-57
2022/06/02 12:54:40;;;;;;;13.43;9.88;;;;;;;;;;5032022;28;20045;-57
2022/06/02 12:57:40;;;;;;;14.07;9.90;;;;;;;;;;5029912;28;20461;-56
2022/06/02 13:00:20;;;;;;;14.30;11.20;;;;;;;;;;5014017;28;20194;-56
2022/06/02 13:03:21;;;;;;;16.83;11.43;;;;;;;;;;5031754;28;20284;-56
2022/06/02 13:06:13;;;;;;;14.88;10.52;;;;;;;;;;5029719;28;20054;-56
2022/06/02 13:09:09;;;;;;;16.05;10.77;;;;;;;;;;5022876;28;20107;-57
2022/06/02 13:12:09;;;;;;;19.90;10.77;;;;;;;;;;5030816;28;20054;-54
2022/06/02 13:15:17;;;;;;;16.08;12.82;;;;;;;;;;5031726;28;20037;-58
2022/06/02 13:18:10;;;;;;;17.10;11.75;;;;;;;;;;5031567;28;20089;-56
2022/06/02 13:20:58;;;;;;;15.85;10.05;;;;;;;;;;5031153;28;20065;-56
2022/06/02 13:23:52;;;;;;;14.93;9.30;;;;;;;;;;5029417;28;20050;-57
2022/06/02 13:26:45;;;;;;;14.25;10.13;;;;;;;;;;5031234;28;20053;-57
2022/06/02 13:29:58;;;;;;;11.02;8.15;;;;;;;;;;5031368;28;20045;-56
2022/06/02 13:32:48;;;;;;;13.27;8.77;;;;;;;;;;5030998;28;20095;-58
2022/06/02 13:35:40;;;;;;;11.85;9.35;;;;;;;;;;5031587;28;20045;-57
2022/06/02 13:38:40;;;;;;;12.93;9.40;;;;;;;;;;5030645;28;20053;-57
2022/06/02 13:41:31;;;;;;;11.77;8.77;;;;;;;;;;5032305;28;20060;-61
2022/06/02 13:44:34;;;;;;;17.00;10.15;;;;;;;;;;5032568;28;20053;-58
2022/06/02 13:47:38;;;;;;;12.55;8.82;;;;;;;;;;5031846;28;20049;-57
2022/06/02 13:50:33;;;;;;;12.70;8.57;;;;;;;;;;5032504;28;20055;-56
2022/06/02 13:53:35;;;;;;;15.82;10.50;;;;;;;;;;5032532;28;20481;-57
2022/06/02 13:59:36;;;;;;;16.13;10.13;;;;;;;;;;5031941;28;20068;-57
2022/06/02 14:02:39;;;;;;;12.35;9.02;;;;;;;;;;5028693;28;20049;-57
2022/06/02 14:05:18;;;;;;;18.35;11.38;;;;;;;;;;5031686;28;20100;-58
2022/06/02 14:08:10;;;;;;;19.48;14.40;;;;;;;;;;5031953;28;20049;-57
2022/06/02 14:10:55;;;;;;;14.63;10.10;;;;;;;;;;5031952;28;20470;-57
2022/06/02 14:13:45;;;;;;;21.52;14.60;;;;;;;;;;5032161;28;20049;-55
2022/06/02 14:16:23;;;;;;;17.05;10.70;;;;;;;;;;5031777;28;20491;-58
2022/06/02 14:19:16;;;;;;;13.25;10.25;;;;;;;;;;5031598;28;20045;-56
2022/06/02 14:21:52;;;;;;;13.63;9.18;;;;;;;;;;5028769;28;20137;-57
2022/06/02 14:24:30;;;;;;;10.85;8.90;;;;;;;;;;5031607;28;20133;-57
2022/06/02 14:27:09;;;;;;;11.77;9.07;;;;;;;;;;5031993;28;20056;-60
2022/06/02 14:29:48;;;;;;;11.63;9.07;;;;;;;;;;5031924;28;20471;-58
2022/06/02 14:32:32;;;;;;;12.48;8.60;;;;;;;;;;5032420;28;20049;-56
2022/06/02 14:35:25;;;;;;;12.88;9.38;;;;;;;;;;5032289;28;20061;-57
2022/06/02 14:37:58;;;;;;;13.55;7.97;;;;;;;;;;5031109;28;20292;-57
2022/06/02 14:40:29;;;;;;;12.45;9.05;;;;;;;;;;5031060;28;20056;-57
2022/06/02 14:43:23;;;;;;;11.70;8.15;;;;;;;;;;5030917;28;20057;-58
2022/06/02 14:46:01;;;;;;;12.50;9.45;;;;;;;;;;5029289;28;20059;-58
2022/06/02 14:48:42;;;;;;;12.23;8.50;;;;;;;;;;5030697;28;20140;-54
2022/06/02 14:51:16;;;;;;;10.93;8.80;;;;;;;;;;5029693;28;20053;-57
2022/06/02 14:54:06;;;;;;;13.70;8.35;;;;;;;;;;5030029;28;20092;-56
2022/06/02 14:56:45;;;;;;;10.57;8.55;;;;;;;;;;5031077;28;20053;-56
2022/06/02 14:59:33;;;;;;;10.82;8.20;;;;;;;;;;5031243;28;20054;-55
2022/06/02 15:02:19;;;;;;;18.23;12.93;;;;;;;;;;5031010;28;20515;-58
2022/06/02 15:05:16;;;;;;;29.60;19.98;;;;;;;;;;5030800;28;20049;-56
2022/06/02 15:08:27;;;;;;;10.23;8.00;;;;;;;;;;5033911;28;20125;-58
2022/06/02 15:11:04;;;;;;;13.73;8.68;;;;;;;;;;5034172;28;20469;-58
2022/06/02 15:13:49;;;;;;;13.13;8.60;;;;;;;;;;5034664;28;20093;-58
2022/06/02 15:16:52;;;;;;;11.20;8.48;;;;;;;;;;5034353;28;20053;-58
2022/06/02 15:19:51;;;;;;;10.05;7.93;;;;;;;;;;5034473;28;20119;-59
2022/06/02 15:22:56;;;;;;;9.60;7.85;;;;;;;;;;5022284;28;20064;-57
2022/06/02 15:25:30;;;;;;;11.93;8.27;;;;;;;;;;5010541;28;20084;-56
2022/06/02 15:28:18;;;;;;;11.07;7.72;;;;;;;;;;5034231;28;20054;-56
2022/06/02 15:31:07;;;;;;;10.63;8.77;;;;;;;;;;5034060;28;20054;-57
2022/06/02 15:34:11;;;;;;;10.18;8.65;;;;;;;;;;5034155;28;20103;-60
2022/06/02 15:37:07;;;;;;;11.93;8.02;;;;;;;;;;5034015;28;20080;-55
2022/06/02 15:40:11;;;;;;;11.65;9.02;;;;;;;;;;5033930;28;20049;-56
2022/06/02 15:42:44;;;;;;;11.77;8.68;;;;;;;;;;5033793;28;20049;-56
2022/06/02 15:45:47;;;;;;;13.82;10.38;;;;;;;;;;5033907;28;20507;-56
2022/06/02 15:49:01;;;;;;;36.75;24.80;;;;;;;;;;5033752;28;20045;-53
2022/06/02 15:52:02;;;;;;;16.52;11.48;;;;;;;;;;5033870;28;20049;-56
2022/06/02 15:55:06;;;;;;;15.18;9.75;;;;;;;;;;5033713;28;20552;-57
2022/06/02 15:58:20;;;;;;;11.68;8.25;;;;;;;;;;5024386;28;20042;-57
2022/06/02 16:01:24;;;;;;;11.32;8.27;;;;;;;;;;5014346;28;20049;-57
2022/06/02 16:04:40;;;;;;;14.27;7.95;;;;;;;;;;5015511;28;20462;-57
2022/06/02 16:07:32;;;;;;;12.82;8.10;;;;;;;;;;4973347;28;20117;-65
2022/06/02 16:14:12;;;;;;;14.15;8.88;;;;;;;;;;5014507;28;20208;-54
2022/06/02 16:17:21;;;;;;;16.52;13.43;;;;;;;;;;4955326;28;20067;-56
2022/06/02 16:20:16;;;;;;;16.20;10.55;;;;;;;;;;5000966;28;20066;-54
2022/06/02 16:23:22;;;;;;;19.90;9.40;;;;;;;;;;5015684;28;20045;-53
2022/06/02 16:26:22;;;;;;;19.33;10.40;;;;;;;;;;5016000;28;20050;-55
2022/06/02 16:29:26;;;;;;;20.38;9.63;;;;;;;;;;5015812;28;20057;-54